Time;durP1;ratioP1;P1;durP2;ratioP2;P2;SDS_P1;SDS_P2;PMS_P1;PMS_P2;Temp;Humidity;BMP_temperature;BMP_pressure;BME280_temperature;BME280_humidity;BME280_pressure;Samples;Min_cycle;Max_cycle;Signal;HPM_P1;HPM_P2
2021/06/27 00:00:30;;;;;;;16.13;13.40;;;;;;;-144.99;76.38;52199.44;5091563;28;20212;-60
2021/06/27 00:02:57;;;;;;;20.47;15.87;;;;;;;-144.99;76.50;52183.13;5078657;28;20240;-60
2021/06/27 00:05:25;;;;;;;20.03;14.67;;;;;;;-144.99;76.60;52179.06;5087779;28;20653;-61
2021/06/27 00:07:53;;;;;;;17.40;14.87;;;;;;;-144.99;76.77;52219.81;5088380;28;20461;-61
2021/06/27 00:10:23;;;;;;;16.23;13.87;;;;;;;-144.99;77.02;52162.75;5070012;28;20327;-61
2021/06/27 00:12:50;;;;;;;16.93;14.30;;;;;;;-144.99;77.25;52191.28;5102107;28;20225;-61
2021/06/27 00:15:20;;;;;;;15.67;14.03;;;;;;;-144.99;77.48;52215.75;5088134;28;20208;-61
2021/06/27 00:17:49;;;;;;;20.33;15.47;;;;;;;-144.99;77.51;52162.75;5100344;28;20208;-61
2021/06/27 00:20:20;;;;;;;18.10;15.33;;;;;;;-144.99;77.92;52211.66;5070914;28;20216;-66
2021/06/27 00:22:49;;;;;;;16.40;14.60;;;;;;;-144.99;78.07;52177.00;5087066;28;20216;-67
2021/06/27 00:25:18;;;;;;;18.97;16.60;;;;;;;-144.99;78.13;52160.72;5080873;28;20227;-66
2021/06/27 00:27:47;;;;;;;18.57;14.37;;;;;;;-144.99;78.33;52215.75;5078245;28;20212;-65
2021/06/27 00:30:16;;;;;;;20.53;16.50;;;;;;;-144.99;78.61;52170.91;5089279;28;20234;-65
2021/06/27 00:32:44;;;;;;;18.30;15.40;;;;;;;-144.99;78.78;52195.34;5091824;28;20204;-65
2021/06/27 00:35:13;;;;;;;20.10;15.40;;;;;;;-144.99;78.67;52211.66;5096271;28;20223;-64
2021/06/27 00:37:39;;;;;;;18.90;15.47;;;;;;;-144.99;78.69;52138.28;5076635;28;20215;-59
2021/06/27 00:40:10;;;;;;;18.57;16.63;;;;;;;-144.99;78.89;52181.09;5093237;28;20223;-59
2021/06/27 00:42:37;;;;;;;18.63;16.83;;;;;;;-144.99;79.05;52195.34;5096669;28;20203;-58
2021/06/27 00:45:08;;;;;;;23.60;16.67;;;;;;;-144.99;79.11;52230.00;5080705;28;20219;-58
2021/06/27 00:47:36;;;;;;;19.10;15.33;;;;;;;-144.99;79.40;52187.19;5094655;28;20207;-59
2021/06/27 00:50:04;;;;;;;21.43;15.50;;;;;;;-144.99;79.43;52183.13;5078120;28;20242;-59
2021/06/27 00:52:30;;;;;;;18.23;14.40;;;;;;;-144.99;79.65;52219.81;5091840;28;20212;-59
2021/06/27 00:54:57;;;;;;;20.47;14.80;;;;;;;-144.99;79.62;52209.63;5092753;28;20294;-60
2021/06/27 00:57:24;;;;;;;16.63;14.77;;;;;;;-144.99;79.86;52199.44;5089411;28;20205;-59
2021/06/27 00:59:50;;;;;;;22.00;14.80;;;;;;;-144.99;80.06;52187.19;5076589;28;20241;-59
2021/06/27 01:02:18;;;;;;;21.77;15.23;;;;;;;-144.99;79.90;52197.41;5089814;28;20659;-60
2021/06/27 01:04:45;;;;;;;19.90;14.50;;;;;;;-144.99;79.95;52203.50;5083395;28;20231;-59
2021/06/27 01:07:11;;;;;;;22.03;14.90;;;;;;;-144.99;80.42;52179.06;5070458;28;20229;-60
2021/06/27 01:09:39;;;;;;;18.20;14.43;;;;;;;-144.99;80.35;52191.28;5078766;28;20238;-58
2021/06/27 01:12:07;;;;;;;18.67;15.20;;;;;;;-144.99;80.29;52179.06;5081654;28;20225;-60
2021/06/27 01:14:33;;;;;;;17.67;15.00;;;;;;;-144.99;80.46;52207.59;5077576;28;20229;-60
2021/06/27 01:17:00;;;;;;;19.57;13.80;;;;;;;-144.99;80.59;52170.91;5072371;28;20253;-60
2021/06/27 01:19:32;;;;;;;21.57;17.30;;;;;;;-144.99;80.28;52170.91;5077479;28;20228;-60
2021/06/27 01:22:01;;;;;;;16.73;15.00;;;;;;;-144.99;79.97;52164.78;5082769;28;20748;-61
2021/06/27 01:24:28;;;;;;;17.47;13.30;;;;;;;-144.99;80.22;52207.59;5078669;28;20205;-60
2021/06/27 01:26:55;;;;;;;18.20;15.30;;;;;;;-144.99;80.15;52162.75;5074651;28;20205;-60
2021/06/27 01:29:21;;;;;;;15.40;13.77;;;;;;;-144.99;80.40;52215.75;5071456;28;20233;-60
2021/06/27 01:31:48;;;;;;;19.97;16.10;;;;;;;-144.99;80.53;52211.66;5072801;28;20446;-61
2021/06/27 01:34:15;;;;;;;21.37;16.10;;;;;;;-144.99;80.47;52197.41;5075600;28;20307;-60
2021/06/27 01:36:42;;;;;;;18.93;14.40;;;;;;;-144.99;80.75;52174.97;5069984;28;20206;-61
2021/06/27 01:39:10;;;;;;;17.13;14.43;;;;;;;-144.99;80.87;52195.34;5067726;28;20225;-61
2021/06/27 01:41:36;;;;;;;19.63;15.23;;;;;;;-144.99;81.08;52207.59;5076384;28;20197;-61
2021/06/27 01:44:03;;;;;;;16.70;14.17;;;;;;;-144.99;80.97;52203.50;5071043;28;20512;-61
2021/06/27 01:46:30;;;;;;;17.30;13.40;;;;;;;-144.99;81.03;52221.84;5078929;28;20205;-62
2021/06/27 01:48:56;;;;;;;17.83;15.33;;;;;;;-144.99;80.98;52195.34;5072485;28;21388;-62
2021/06/27 01:51:23;;;;;;;21.17;15.20;;;;;;;-144.99;81.23;52203.50;5075999;28;20614;-64
2021/06/27 01:53:49;;;;;;;15.03;13.40;;;;;;;-144.99;81.21;52185.16;5073285;28;20212;-65
2021/06/27 01:56:17;;;;;;;19.83;13.60;;;;;;;-144.99;81.00;52195.34;5078486;28;20205;-65
2021/06/27 01:58:46;;;;;;;19.63;14.93;;;;;;;-144.99;81.00;52174.97;5072796;28;20235;-65
2021/06/27 02:01:15;;;;;;;22.27;15.30;;;;;;;-144.99;80.92;52183.13;5073739;28;20578;-65
2021/06/27 02:03:43;;;;;;;18.23;14.27;;;;;;;-144.99;80.95;52166.81;5076483;28;20706;-64
2021/06/27 02:06:10;;;;;;;19.60;16.77;;;;;;;-144.99;81.15;52172.94;5074335;28;20691;-64
2021/06/27 02:08:39;;;;;;;17.80;15.30;;;;;;;-144.99;81.29;52199.44;5078505;28;20250;-64
2021/06/27 02:11:08;;;;;;;17.90;13.40;;;;;;;-144.99;81.60;52191.28;4742583;22;10001999;-62
2021/06/27 02:13:36;;;;;;;20.93;15.93;;;;;;;-144.99;81.50;52183.13;5079684;28;20196;-60
2021/06/27 02:16:04;;;;;;;21.30;16.73;;;;;;;-144.99;81.57;52187.19;5074902;28;20357;-60
2021/06/27 02:18:32;;;;;;;22.63;15.17;;;;;;;-144.99;81.57;52166.81;5076772;28;20744;-62
2021/06/27 02:21:01;;;;;;;20.00;14.43;;;;;;;-144.99;81.77;52203.50;5073259;28;20204;-63
2021/06/27 02:23:28;;;;;;;19.63;15.37;;;;;;;-144.99;81.85;52183.13;5075316;28;20211;-63
2021/06/27 02:25:56;;;;;;;23.83;15.93;;;;;;;-144.99;82.10;52191.28;5074038;28;20615;-60
2021/06/27 02:28:22;;;;;;;16.57;14.43;;;;;;;-144.99;81.84;52209.63;5067917;28;20227;-60
2021/06/27 02:30:50;;;;;;;18.23;15.83;;;;;;;-144.99;81.97;52213.69;5071739;28;20228;-60
2021/06/27 02:33:17;;;;;;;18.53;15.07;;;;;;;-144.99;82.11;52183.13;5077045;28;20207;-61
2021/06/27 02:35:44;;;;;;;16.73;14.83;;;;;;;-144.99;82.44;52205.53;5072334;28;20205;-61
2021/06/27 02:38:11;;;;;;;19.97;13.77;;;;;;;-144.99;82.50;52211.66;5076440;28;20212;-61
2021/06/27 02:40:40;;;;;;;17.33;15.53;;;;;;;-144.99;82.68;52195.34;5068040;28;20197;-60
2021/06/27 02:43:07;;;;;;;20.07;16.53;;;;;;;-144.99;83.01;52187.19;5076216;28;20684;-61
2021/06/27 02:45:34;;;;;;;19.77;15.87;;;;;;;-144.99;83.21;52191.28;5073547;28;20209;-62
2021/06/27 02:48:02;;;;;;;20.97;15.83;;;;;;;-144.99;83.46;52168.84;5073282;28;20487;-61
2021/06/27 02:50:28;;;;;;;19.30;16.73;;;;;;;-144.99;83.56;52193.31;5072495;28;20610;-61
2021/06/27 02:52:55;;;;;;;19.57;15.97;;;;;;;-144.99;83.73;52183.13;5071967;28;20204;-62
2021/06/27 02:55:23;;;;;;;21.53;18.00;;;;;;;-144.99;83.85;52215.75;5070015;28;20662;-62
2021/06/27 02:57:51;;;;;;;20.50;15.37;;;;;;;-144.99;83.89;52207.59;5072971;28;20207;-62
2021/06/27 03:00:20;;;;;;;21.10;16.30;;;;;;;-144.99;83.89;52183.13;5069128;28;20224;-61
2021/06/27 03:02:47;;;;;;;19.97;16.63;;;;;;;-144.99;83.96;52236.13;5071424;28;20207;-62
2021/06/27 03:05:17;;;;;;;21.03;17.63;;;;;;;-144.99;84.23;52187.19;5068731;28;20292;-65
2021/06/27 03:07:44;;;;;;;24.17;16.07;;;;;;;-144.99;84.19;52215.75;5069818;28;20200;-65
2021/06/27 03:10:13;;;;;;;21.70;19.53;;;;;;;-144.99;84.27;52207.59;5070654;28;20231;-65
2021/06/27 03:12:39;;;;;;;21.77;17.07;;;;;;;-144.99;84.56;52232.03;5059655;28;20224;-65
2021/06/27 03:15:07;;;;;;;18.80;15.70;;;;;;;-144.99;84.50;52211.66;5072513;28;20212;-66
2021/06/27 03:17:37;;;;;;;22.57;20.17;;;;;;;-144.99;84.50;52187.19;5069391;28;20605;-65
2021/06/27 03:20:05;;;;;;;23.27;15.23;;;;;;;-144.99;84.46;52195.34;5076018;28;20220;-59
2021/06/27 03:22:33;;;;;;;18.53;16.13;;;;;;;-144.99;84.64;52179.06;5076227;28;20287;-60
2021/06/27 03:25:00;;;;;;;18.17;14.77;;;;;;;-144.99;84.62;52193.31;5074060;28;20559;-59
2021/06/27 03:27:27;;;;;;;19.23;16.13;;;;;;;-144.99;84.86;52138.28;5073539;28;20206;-59
2021/06/27 03:29:54;;;;;;;19.37;15.93;;;;;;;-144.99;84.79;52156.63;5069333;28;20227;-60
2021/06/27 03:32:20;;;;;;;19.37;16.00;;;;;;;-144.99;84.83;52195.34;5073546;28;20323;-59
2021/06/27 03:34:47;;;;;;;18.50;14.97;;;;;;;-144.99;84.92;52195.34;5070648;28;20205;-60
2021/06/27 03:37:13;;;;;;;19.43;15.93;;;;;;;-144.99;84.94;52211.66;5075098;28;20211;-60
2021/06/27 03:39:41;;;;;;;15.73;13.60;;;;;;;-144.99;84.59;52183.13;5071516;28;20710;-62
2021/06/27 03:42:08;;;;;;;18.27;15.00;;;;;;;-144.99;84.60;52187.19;5072112;28;20288;-62
2021/06/27 03:44:35;;;;;;;16.83;14.77;;;;;;;-144.99;84.52;52191.28;5072688;28;20229;-62
2021/06/27 03:47:02;;;;;;;19.40;16.30;;;;;;;-144.99;84.55;52170.91;5074374;28;20204;-64
2021/06/27 03:49:28;;;;;;;20.23;16.10;;;;;;;-144.99;84.77;52193.31;5077098;28;20232;-61
2021/06/27 03:51:55;;;;;;;17.67;15.23;;;;;;;-144.99;84.85;52223.88;5079176;28;20222;-61
2021/06/27 03:54:21;;;;;;;21.13;15.47;;;;;;;-144.99;84.68;52187.19;5078626;28;20210;-62
2021/06/27 03:56:49;;;;;;;19.50;14.97;;;;;;;-144.99;84.50;52195.34;5077991;28;20415;-61
2021/06/27 03:59:16;;;;;;;18.93;12.93;;;;;;;-144.99;84.55;52236.13;5074279;28;20990;-61
2021/06/27 04:01:42;;;;;;;19.00;15.13;;;;;;;-144.99;84.44;52183.13;5071752;28;20201;-61
2021/06/27 04:04:09;;;;;;;18.87;13.97;;;;;;;-144.99;84.28;52166.81;5072558;28;20657;-61
2021/06/27 04:06:35;;;;;;;18.43;13.23;;;;;;;-144.99;84.60;52183.13;5072320;28;20580;-61
2021/06/27 04:09:02;;;;;;;17.80;14.13;;;;;;;-144.99;84.52;52174.97;5074363;28;20259;-61
2021/06/27 04:11:28;;;;;;;18.87;14.10;;;;;;;-144.99;84.70;52179.06;5080900;28;20234;-61
2021/06/27 04:13:56;;;;;;;17.67;14.87;;;;;;;-144.99;84.43;52158.66;5076719;28;20218;-61
2021/06/27 04:16:23;;;;;;;23.97;17.40;;;;;;;-144.99;84.67;52211.66;5077185;28;20204;-61
2021/06/27 04:18:53;;;;;;;17.30;12.50;;;;;;;-144.99;84.28;52195.34;5079825;28;20228;-60
2021/06/27 04:21:19;;;;;;;16.90;13.10;;;;;;;-144.99;84.57;52223.88;5072698;28;20660;-59
2021/06/27 04:23:46;;;;;;;17.80;13.43;;;;;;;-144.99;84.53;52227.97;5078354;28;20217;-59
2021/06/27 04:26:12;;;;;;;17.23;13.93;;;;;;;-144.99;84.21;52211.66;5076321;28;20567;-60
2021/06/27 04:28:39;;;;;;;17.37;14.00;;;;;;;-144.99;84.31;52215.75;5070410;28;20226;-60
2021/06/27 04:31:07;;;;;;;22.07;13.17;;;;;;;-144.99;84.10;52166.81;5076928;28;20205;-61
2021/06/27 04:33:34;;;;;;;20.27;16.03;;;;;;;-144.99;84.35;52170.91;5075662;28;20200;-60
2021/06/27 04:36:00;;;;;;;18.40;14.60;;;;;;;-144.99;84.39;52195.34;5074606;28;20744;-60
2021/06/27 04:38:27;;;;;;;16.70;14.83;;;;;;;-144.99;84.17;52187.19;5080045;28;20229;-62
2021/06/27 04:40:54;;;;;;;19.47;14.47;;;;;;;-144.99;84.14;52174.97;5075370;28;20711;-62
2021/06/27 04:43:21;;;;;;;20.53;15.17;;;;;;;-144.99;84.16;52181.09;5072153;28;20571;-62
2021/06/27 04:45:49;;;;;;;17.63;12.23;;;;;;;-144.99;83.80;52174.97;5074439;28;20211;-61
2021/06/27 04:48:17;;;;;;;17.03;13.53;;;;;;;-144.99;83.46;52174.97;5073678;28;20662;-61
2021/06/27 04:50:46;;;;;;;18.27;14.33;;;;;;;-144.99;83.47;52168.84;5071172;28;20204;-61
2021/06/27 04:53:14;;;;;;;15.73;12.10;;;;;;;-144.99;83.28;52199.44;5071229;28;20566;-60
2021/06/27 04:55:42;;;;;;;19.27;15.53;;;;;;;-144.99;83.10;52174.97;5070863;28;20209;-61
2021/06/27 04:58:08;;;;;;;16.90;13.83;;;;;;;-144.99;83.02;52158.66;5075551;28;20204;-61
2021/06/27 05:00:35;;;;;;;17.80;14.50;;;;;;;-144.99;82.73;52179.06;5070602;28;20200;-61
2021/06/27 05:03:01;;;;;;;18.37;14.90;;;;;;;-144.99;82.64;52162.75;5075167;28;20580;-61
2021/06/27 05:05:30;;;;;;;19.53;13.17;;;;;;;-144.99;82.72;52166.81;5069896;28;20205;-62
2021/06/27 05:07:56;;;;;;;18.60;13.17;;;;;;;-144.99;82.35;52158.66;5076922;28;20212;-62
2021/06/27 05:10:23;;;;;;;17.77;12.93;;;;;;;-144.99;82.38;52183.13;5069602;28;20205;-63
2021/06/27 05:12:50;;;;;;;17.23;13.53;;;;;;;-144.99;82.33;52152.56;5070147;28;20239;-63
2021/06/27 05:15:16;;;;;;;20.33;14.77;;;;;;;-144.99;82.23;52174.97;5070049;28;20220;-60
2021/06/27 05:17:43;;;;;;;16.57;12.73;;;;;;;-144.99;82.16;52168.84;5066205;28;20376;-60
2021/06/27 05:20:10;;;;;;;13.53;11.53;;;;;;;-144.99;81.85;52154.59;5074362;28;20705;-61
2021/06/27 05:22:38;;;;;;;16.77;12.60;;;;;;;-144.99;81.97;52152.56;5069998;28;20215;-60
2021/06/27 05:25:06;;;;;;;21.20;15.33;;;;;;;-144.99;81.67;52150.53;5078014;28;20430;-61
2021/06/27 05:27:33;;;;;;;25.47;14.33;;;;;;;-144.99;81.63;52183.13;5076553;28;20216;-61
2021/06/27 05:29:59;;;;;;;18.67;13.07;;;;;;;-144.99;81.51;52168.84;5070090;28;20229;-61
2021/06/27 05:32:26;;;;;;;16.43;13.03;;;;;;;-144.99;81.47;52162.75;5074830;28;20261;-61
2021/06/27 05:34:52;;;;;;;15.97;14.33;;;;;;;-144.99;80.99;52199.44;5076921;28;20207;-61
2021/06/27 05:37:19;;;;;;;15.13;11.80;;;;;;;-144.99;81.05;52174.97;5078713;28;20208;-61
2021/06/27 05:39:47;;;;;;;16.73;14.07;;;;;;;-144.99;80.53;52138.28;5076476;28;20225;-60
2021/06/27 05:42:14;;;;;;;15.27;12.70;;;;;;;-144.99;80.32;52154.59;5078484;28;20201;-60
2021/06/27 05:44:40;;;;;;;19.37;12.97;;;;;;;-144.99;80.33;52152.56;5069190;28;20201;-61
2021/06/27 05:47:07;;;;;;;17.03;12.97;;;;;;;-144.99;80.06;52174.97;5069815;28;20216;-60
2021/06/27 05:49:33;;;;;;;21.77;12.33;;;;;;;-144.99;79.85;52154.59;5076164;28;20250;-61
2021/06/27 05:52:00;;;;;;;15.07;12.33;;;;;;;-144.99;79.51;52130.13;5068850;28;20221;-61
2021/06/27 05:54:27;;;;;;;14.73;10.90;;;;;;;-144.99;79.55;52138.28;5074787;28;20630;-61
2021/06/27 05:56:55;;;;;;;15.90;11.00;;;;;;;-144.99;79.51;52183.13;5077060;28;20638;-59
2021/06/27 05:59:21;;;;;;;17.57;12.50;;;;;;;-144.99;79.44;52146.44;5080123;28;20696;-61
2021/06/27 06:01:48;;;;;;;16.33;12.63;;;;;;;-144.99;79.03;52146.44;5075860;28;20201;-60
2021/06/27 06:04:14;;;;;;;15.23;10.90;;;;;;;-144.99;78.86;52166.81;5068943;28;20197;-60
2021/06/27 06:06:41;;;;;;;18.77;12.00;;;;;;;-144.99;78.71;52136.25;5077579;28;20575;-59
2021/06/27 06:09:08;;;;;;;16.53;12.27;;;;;;;-144.99;78.57;52158.66;5076669;28;20565;-60
2021/06/27 06:11:34;;;;;;;17.30;13.10;;;;;;;-144.99;77.99;52162.75;5072513;28;20219;-60
2021/06/27 06:14:02;;;;;;;16.90;12.07;;;;;;;-144.99;77.76;52174.97;5075190;28;20209;-60
2021/06/27 06:16:29;;;;;;;15.93;12.77;;;;;;;-144.99;77.60;52142.38;5072083;28;20215;-60
2021/06/27 06:18:55;;;;;;;15.87;10.63;;;;;;;-144.99;77.41;52166.81;5077184;28;20231;-60
2021/06/27 06:21:22;;;;;;;16.83;12.17;;;;;;;-144.99;77.00;52138.28;5075423;28;20225;-60
2021/06/27 06:23:49;;;;;;;17.60;11.17;;;;;;;-144.99;76.77;52134.22;5079412;28;20205;-60
2021/06/27 06:26:15;;;;;;;12.30;10.50;;;;;;;-144.99;76.45;52101.59;5078887;28;20201;-60
2021/06/27 06:28:42;;;;;;;17.57;11.30;;;;;;;-144.99;76.30;52117.91;5070132;28;20229;-60
2021/06/27 06:31:11;;;;;;;17.50;13.93;;;;;;;-144.99;76.22;52174.97;5072983;28;20232;-60
2021/06/27 06:33:38;;;;;;;15.07;12.97;;;;;;;-144.99;76.10;52134.22;5071982;28;20697;-60
2021/06/27 06:36:05;;;;;;;19.33;14.13;;;;;;;-144.99;75.76;52142.38;5076263;28;20209;-60
2021/06/27 06:38:32;;;;;;;21.17;12.97;;;;;;;-144.99;74.96;52121.97;5077469;28;20239;-61
2021/06/27 06:40:59;;;;;;;17.80;13.07;;;;;;;-144.99;74.50;52130.13;5074320;28;20218;-61
2021/06/27 06:43:25;;;;;;;15.87;10.70;;;;;;;-144.99;73.92;52142.38;5073791;28;20226;-61
2021/06/27 06:45:52;;;;;;;18.60;12.50;;;;;;;-144.99;73.74;52162.75;5077886;28;20458;-60
2021/06/27 06:48:20;;;;;;;13.33;10.63;;;;;;;-144.99;73.45;52095.50;5076142;28;20226;-60
2021/06/27 06:50:47;;;;;;;14.93;10.13;;;;;;;-144.99;73.17;52113.84;5072787;28;20211;-61
2021/06/27 06:53:13;;;;;;;15.77;12.53;;;;;;;-144.99;72.63;52117.91;5076297;28;20227;-60
2021/06/27 06:55:40;;;;;;;16.83;11.83;;;;;;;-144.99;72.33;52154.59;5074042;28;20712;-61
2021/06/27 06:58:06;;;;;;;18.67;13.07;;;;;;;-144.99;71.78;52077.16;5074221;28;20202;-61
2021/06/27 07:00:34;;;;;;;11.00;9.90;;;;;;;-144.99;71.58;52093.44;5074985;28;21499;-61
2021/06/27 07:03:01;;;;;;;14.83;11.10;;;;;;;-144.99;71.23;52089.38;5081060;28;20208;-61
2021/06/27 07:05:29;;;;;;;17.23;10.10;;;;;;;-144.99;71.19;52134.22;5075642;28;20217;-61
2021/06/27 07:07:55;;;;;;;16.73;11.97;;;;;;;-144.99;71.03;52148.47;5074207;28;20841;-60
2021/06/27 07:10:22;;;;;;;15.93;12.03;;;;;;;-144.99;70.65;52121.97;5072396;28;20223;-62
2021/06/27 07:12:49;;;;;;;13.83;11.00;;;;;;;-144.99;70.35;52146.44;5073689;28;20231;-61
2021/06/27 07:15:16;;;;;;;19.30;12.30;;;;;;;-144.99;70.46;52121.97;5074105;28;20578;-62
2021/06/27 07:17:43;;;;;;;15.57;12.20;;;;;;;-144.99;70.70;52138.28;5076604;28;20274;-62
2021/06/27 07:20:12;;;;;;;13.27;11.23;;;;;;;-144.99;70.32;52069.00;5074276;28;20232;-63
2021/06/27 07:22:40;;;;;;;20.97;12.37;;;;;;;-144.99;69.78;52138.28;5074605;28;20228;-62
2021/06/27 07:25:08;;;;;;;11.70;9.20;;;;;;;-144.99;69.34;52073.06;5081070;28;20584;-62
2021/06/27 07:27:35;;;;;;;16.73;11.67;;;;;;;-144.99;68.68;52089.38;5073814;28;20205;-63
2021/06/27 07:30:02;;;;;;;14.40;11.33;;;;;;;-144.99;68.31;52117.91;5076504;28;20601;-63
2021/06/27 07:32:28;;;;;;;16.43;13.37;;;;;;;-144.99;68.06;52069.00;5072911;28;20226;-63
2021/06/27 07:34:55;;;;;;;12.97;11.03;;;;;;;-144.99;67.22;52121.97;5073031;28;20259;-63
2021/06/27 07:37:22;;;;;;;19.73;12.60;;;;;;;-144.99;66.78;52093.44;5077254;28;20205;-63
2021/06/27 07:39:50;;;;;;;13.07;10.13;;;;;;;-144.99;66.16;52089.38;5082030;28;20225;-62
2021/06/27 07:42:16;;;;;;;16.97;11.40;;;;;;;-144.99;64.96;52089.38;5073842;28;20299;-62
2021/06/27 07:44:43;;;;;;;12.77;10.10;;;;;;;-144.99;64.84;52093.44;5076695;28;20581;-62
2021/06/27 07:47:09;;;;;;;13.07;11.23;;;;;;;-144.99;64.68;52107.72;5077115;28;20575;-62
2021/06/27 07:49:36;;;;;;;14.47;11.23;;;;;;;-144.99;64.10;52093.44;5078361;28;20779;-63
2021/06/27 07:52:03;;;;;;;15.73;10.63;;;;;;;-144.99;64.07;52064.91;5078023;28;20203;-62
2021/06/27 07:54:30;;;;;;;12.37;9.40;;;;;;;-144.99;63.83;52109.75;5076603;28;20198;-62
2021/06/27 07:56:58;;;;;;;15.37;10.50;;;;;;;-144.99;63.39;52093.44;5076181;28;20219;-63
2021/06/27 07:59:24;;;;;;;12.60;9.67;;;;;;;-144.99;63.51;52097.53;5071391;28;20260;-62
2021/06/27 08:01:51;;;;;;;14.40;11.10;;;;;;;-144.99;62.51;52103.66;5066657;28;20224;-63
2021/06/27 08:04:17;;;;;;;13.77;9.47;;;;;;;-144.99;61.78;52093.44;5067182;28;20228;-63
2021/06/27 08:06:44;;;;;;;17.67;9.47;;;;;;;-144.99;60.87;52042.50;5063848;28;20207;-63
2021/06/27 08:09:10;;;;;;;13.17;11.20;;;;;;;-144.99;60.70;52032.31;5070880;28;20712;-63
2021/06/27 08:11:37;;;;;;;12.27;9.27;;;;;;;-144.99;60.16;52054.72;5071452;28;20227;-63
2021/06/27 08:14:06;;;;;;;12.97;9.60;;;;;;;-144.99;59.15;52028.22;5071050;28;20317;-63
2021/06/27 08:16:32;;;;;;;10.20;8.73;;;;;;;-144.99;59.26;51999.69;5071385;28;20321;-64
2021/06/27 08:18:59;;;;;;;12.07;8.70;;;;;;;-144.99;58.05;52030.28;5071168;28;20464;-63
2021/06/27 08:21:25;;;;;;;11.47;9.37;;;;;;;-144.99;57.24;52050.66;5070206;28;20238;-63
2021/06/27 08:23:52;;;;;;;12.57;9.03;;;;;;;-144.99;56.27;52028.22;5071326;28;20199;-63
2021/06/27 08:26:22;;;;;;;11.83;7.37;;;;;;;-144.99;56.00;52018.03;5071239;28;20227;-63
2021/06/27 08:28:49;;;;;;;12.97;9.63;;;;;;;-144.99;55.22;52042.50;5071297;28;20258;-63
2021/06/27 08:31:17;;;;;;;10.13;8.17;;;;;;;-144.99;55.01;52032.31;5070978;28;20208;-63
2021/06/27 08:33:44;;;;;;;10.63;7.47;;;;;;;-144.99;54.15;52077.16;5071066;28;20235;-64
2021/06/27 08:36:10;;;;;;;11.30;8.27;;;;;;;-144.99;53.58;51991.56;5069617;28;20650;-64
2021/06/27 08:38:38;;;;;;;10.80;7.67;;;;;;;-144.99;54.02;52058.81;5070676;28;20247;-63
2021/06/27 08:41:04;;;;;;;10.07;7.87;;;;;;;-144.99;54.34;52016.00;5071011;28;20269;-63
2021/06/27 08:43:32;;;;;;;10.20;8.10;;;;;;;-144.99;54.41;52028.22;5071489;28;20642;-63
2021/06/27 08:46:07;;;;;;;9.63;7.43;;;;;;;-144.99;54.05;51999.69;5070391;28;20209;-65
2021/06/27 08:48:38;;;;;;;10.33;8.20;;;;;;;-144.99;53.80;52044.53;5070855;28;20779;-61
2021/06/27 08:51:06;;;;;;;11.13;8.47;;;;;;;-144.99;52.57;52032.31;5083726;22;20234;-62
2021/06/27 08:53:34;;;;;;;9.90;8.10;;;;;;;-144.99;52.90;52001.75;5090237;28;20232;-62
2021/06/27 08:56:08;;;;;;;9.57;6.63;;;;;;;-144.99;53.25;51991.56;5079667;28;20218;-63
2021/06/27 08:58:36;;;;;;;10.50;7.67;;;;;;;-144.99;52.96;52064.91;5072542;28;20231;-63
2021/06/27 09:01:04;;;;;;;11.10;8.53;;;;;;;-144.99;53.05;52030.28;5096190;28;20234;-63
2021/06/27 09:03:30;;;;;;;14.67;10.73;;;;;;;-144.99;52.88;52040.47;5081780;28;20219;-63
2021/06/27 09:05:59;;;;;;;11.60;7.83;;;;;;;-144.99;52.59;52022.13;5071971;28;20227;-63
2021/06/27 09:08:26;;;;;;;11.17;8.63;;;;;;;-144.99;52.53;52048.63;5071527;28;20243;-63
2021/06/27 09:10:53;;;;;;;9.87;8.60;;;;;;;-144.99;52.00;52044.53;5083106;28;20211;-63
2021/06/27 09:13:38;;;;;;;11.70;8.87;;;;;;;-144.99;51.87;52030.28;5080780;28;20272;-62
2021/06/27 09:16:17;;;;;;;11.97;9.33;;;;;;;-144.99;51.70;51999.69;5090959;28;20272;-63
2021/06/27 09:18:44;;;;;;;10.60;8.20;;;;;;;-144.99;51.21;52040.47;5088564;28;20275;-67
2021/06/27 09:21:12;;;;;;;10.10;7.97;;;;;;;-144.99;50.85;52069.00;5084347;28;20211;-62
2021/06/27 09:23:41;;;;;;;11.07;7.50;;;;;;;-144.99;50.79;52024.16;5077292;28;20203;-62
2021/06/27 09:26:08;;;;;;;11.03;8.13;;;;;;;-144.99;50.78;52020.09;5074900;28;20224;-62
2021/06/27 09:28:44;;;;;;;11.73;8.43;;;;;;;-144.99;50.09;51991.56;5070994;28;20229;-63
2021/06/27 09:31:11;;;;;;;10.47;7.83;;;;;;;-144.99;50.12;52069.00;5072044;28;20689;-62
2021/06/27 09:33:38;;;;;;;9.83;6.50;;;;;;;-144.99;50.71;52032.31;5070454;28;20247;-63
2021/06/27 09:36:06;;;;;;;10.17;7.30;;;;;;;-144.99;50.92;52038.44;5083698;28;20668;-62
2021/06/27 09:38:41;;;;;;;9.27;7.37;;;;;;;-144.99;51.07;52020.09;5070679;28;20260;-62
2021/06/27 09:41:14;;;;;;;8.00;6.57;;;;;;;-144.99;50.81;52040.47;5082128;28;20219;-64
2021/06/27 09:43:48;;;;;;;8.33;6.30;;;;;;;-144.99;50.19;52032.31;5088230;28;20200;-62
2021/06/27 09:46:14;;;;;;;9.10;7.53;;;;;;;-144.99;50.01;52020.09;5084828;28;20200;-62
2021/06/27 09:48:53;;;;;;;11.30;6.63;;;;;;;-144.99;49.92;51995.63;5069295;28;20219;-63
2021/06/27 09:51:21;;;;;;;8.20;6.30;;;;;;;-144.99;50.40;52028.22;5078276;28;20299;-63
2021/06/27 09:53:48;;;;;;;9.63;7.90;;;;;;;-144.99;49.46;52028.22;5083850;28;20609;-63
2021/06/27 09:56:16;;;;;;;11.63;7.23;;;;;;;-144.99;49.33;51995.63;5083335;28;20208;-63
2021/06/27 09:59:05;;;;;;;10.00;7.73;;;;;;;-144.99;49.18;51991.56;5069905;28;20256;-63
2021/06/27 10:01:33;;;;;;;9.10;6.37;;;;;;;-144.99;48.75;51999.69;5069796;28;20220;-63
2021/06/27 10:04:02;;;;;;;8.37;7.03;;;;;;;-144.99;48.37;51971.16;5083926;28;20675;-63
2021/06/27 10:06:30;;;;;;;7.93;6.77;;;;;;;-144.99;48.35;51987.47;5075469;28;20212;-63
2021/06/27 10:09:10;;;;;;;10.53;7.67;;;;;;;-144.99;47.93;51954.88;5069793;28;20268;-63
2021/06/27 10:11:37;;;;;;;10.07;7.80;;;;;;;-144.99;47.95;51983.41;5069291;28;20718;-63
2021/06/27 10:14:10;;;;;;;9.40;6.60;;;;;;;-144.99;47.48;51989.50;5083642;28;20238;-63
2021/06/27 10:16:37;;;;;;;10.63;8.27;;;;;;;-144.99;46.81;52018.03;4378353;28;10000750;-62
2021/06/27 10:19:05;;;;;;;7.47;6.40;;;;;;;-144.99;47.12;51983.41;5077661;28;20232;-62
2021/06/27 10:21:32;;;;;;;9.67;7.23;;;;;;;-144.99;47.55;52003.78;5080769;28;20667;-61
2021/06/27 10:24:00;;;;;;;8.53;6.83;;;;;;;-144.99;47.88;51991.56;5081486;28;20212;-61
2021/06/27 10:26:29;;;;;;;9.83;7.00;;;;;;;-144.99;47.58;51977.28;5083090;28;20752;-61
2021/06/27 10:28:56;;;;;;;9.17;5.90;;;;;;;-144.99;47.88;51963.03;5078921;28;20226;-61
2021/06/27 10:31:25;;;;;;;9.20;6.47;;;;;;;-144.99;47.16;51946.72;5077994;28;20210;-61
2021/06/27 10:33:55;;;;;;;8.00;5.80;;;;;;;-144.99;46.89;51926.34;5077691;28;20608;-61
2021/06/27 10:36:31;;;;;;;10.83;7.80;;;;;;;-144.99;46.50;51987.47;5069750;28;20212;-61
2021/06/27 10:39:01;;;;;;;8.07;6.40;;;;;;;-144.99;46.06;52003.78;5081357;28;20229;-62
2021/06/27 10:41:50;;;;;;;9.67;6.60;;;;;;;-144.99;46.53;51987.47;5082695;28;20245;-61
2021/06/27 10:44:17;;;;;;;7.40;5.87;;;;;;;-144.99;46.73;51934.50;5082608;28;20594;-61
2021/06/27 10:46:46;;;;;;;9.10;6.77;;;;;;;-144.99;46.81;51934.50;5080956;28;20212;-62
2021/06/27 10:49:46;;;;;;;10.00;7.17;;;;;;;-144.99;46.39;51950.78;5078695;28;20691;-65
2021/06/27 10:52:15;;;;;;;9.77;5.70;;;;;;;-144.99;46.08;51934.50;5075017;28;20699;-64
2021/06/27 10:54:44;;;;;;;9.07;6.17;;;;;;;-144.99;45.93;51897.81;5079244;28;20222;-66
2021/06/27 10:57:12;;;;;;;12.60;8.40;;;;;;;-144.99;46.30;51999.69;5091129;28;20402;-66
2021/06/27 10:59:58;;;;;;;7.27;6.03;;;;;;;-144.99;45.71;51934.50;5073656;28;20227;-66
2021/06/27 11:02:39;;;;;;;7.43;5.33;;;;;;;-144.99;45.82;52016.00;5088995;28;20215;-61
2021/06/27 11:05:45;;;;;;;9.37;6.87;;;;;;;-144.99;47.05;51944.69;5075369;28;20663;-63
2021/06/27 11:08:14;;;;;;;7.10;4.87;;;;;;;-144.99;46.99;51930.41;5080888;28;21193;-61